sensor_id;sensor_type;location;lat;lon;timestamp;P1;durP1;ratioP1;P2;durP2;ratioP2
11048;SDS011;5577;42.706;23.160;2022-11-15T00:01:52;63.77;;;35.20;;
11048;SDS011;5577;42.706;23.160;2022-11-15T00:04:36;63.17;;;35.83;;
11048;SDS011;5577;42.706;23.160;2022-11-15T00:07:20;66.70;;;36.30;;
11048;SDS011;5577;42.706;23.160;2022-11-15T00:10:04;67.17;;;38.17;;
11048;SDS011;5577;42.706;23.160;2022-11-15T00:12:49;72.23;;;39.40;;
11048;SDS011;5577;42.706;23.160;2022-11-15T00:15:36;68.13;;;36.17;;
11048;SDS011;5577;42.706;23.160;2022-11-15T00:18:24;68.17;;;36.20;;
11048;SDS011;5577;42.706;23.160;2022-11-15T00:21:12;66.77;;;36.33;;
11048;SDS011;5577;42.706;23.160;2022-11-15T00:23:58;62.57;;;35.30;;
11048;SDS011;5577;42.706;23.160;2022-11-15T00:26:42;59.83;;;33.53;;
11048;SDS011;5577;42.706;23.160;2022-11-15T00:29:26;56.80;;;33.67;;
11048;SDS011;5577;42.706;23.160;2022-11-15T00:32:10;57.80;;;34.13;;
11048;SDS011;5577;42.706;23.160;2022-11-15T00:34:54;57.87;;;32.27;;
11048;SDS011;5577;42.706;23.160;2022-11-15T00:37:38;59.13;;;31.87;;
11048;SDS011;5577;42.706;23.160;2022-11-15T00:40:22;58.83;;;32.93;;
11048;SDS011;5577;42.706;23.160;2022-11-15T00:43:06;57.07;;;33.30;;
11048;SDS011;5577;42.706;23.160;2022-11-15T00:45:49;66.67;;;35.90;;
11048;SDS011;5577;42.706;23.160;2022-11-15T00:48:33;65.70;;;34.83;;
11048;SDS011;5577;42.706;23.160;2022-11-15T00:51:17;58.77;;;33.97;;
11048;SDS011;5577;42.706;23.160;2022-11-15T00:54:02;56.90;;;33.10;;
11048;SDS011;5577;42.706;23.160;2022-11-15T00:56:46;55.83;;;31.03;;
11048;SDS011;5577;42.706;23.160;2022-11-15T00:59:31;57.23;;;32.60;;
11048;SDS011;5577;42.706;23.160;2022-11-15T01:02:15;56.33;;;31.97;;
11048;SDS011;5577;42.706;23.160;2022-11-15T01:04:59;58.97;;;33.23;;
11048;SDS011;5577;42.706;23.160;2022-11-15T01:07:43;63.23;;;33.77;;
11048;SDS011;5577;42.706;23.160;2022-11-15T01:10:26;57.77;;;32.13;;
11048;SDS011;5577;42.706;23.160;2022-11-15T01:13:10;59.50;;;31.97;;
11048;SDS011;5577;42.706;23.160;2022-11-15T01:15:54;55.07;;;31.43;;
11048;SDS011;5577;42.706;23.160;2022-11-15T01:18:38;56.53;;;32.57;;
11048;SDS011;5577;42.706;23.160;2022-11-15T01:21:23;56.30;;;30.97;;
11048;SDS011;5577;42.706;23.160;2022-11-15T01:24:07;55.37;;;31.90;;
11048;SDS011;5577;42.706;23.160;2022-11-15T01:26:55;57.43;;;32.83;;
11048;SDS011;5577;42.706;23.160;2022-11-15T01:29:39;58.10;;;30.90;;
11048;SDS011;5577;42.706;23.160;2022-11-15T01:32:22;55.97;;;30.77;;
11048;SDS011;5577;42.706;23.160;2022-11-15T01:35:07;59.20;;;32.30;;
11048;SDS011;5577;42.706;23.160;2022-11-15T01:37:51;70.83;;;36.63;;
11048;SDS011;5577;42.706;23.160;2022-11-15T01:40:35;56.33;;;33.13;;
11048;SDS011;5577;42.706;23.160;2022-11-15T01:43:20;58.27;;;32.77;;
11048;SDS011;5577;42.706;23.160;2022-11-15T01:49:05;54.10;;;31.33;;
11048;SDS011;5577;42.706;23.160;2022-11-15T01:51:57;57.43;;;31.97;;
11048;SDS011;5577;42.706;23.160;2022-11-15T01:54:42;57.10;;;30.90;;
11048;SDS011;5577;42.706;23.160;2022-11-15T01:57:26;51.70;;;30.60;;
11048;SDS011;5577;42.706;23.160;2022-11-15T02:00:12;52.17;;;30.27;;
11048;SDS011;5577;42.706;23.160;2022-11-15T02:02:57;54.67;;;30.77;;
11048;SDS011;5577;42.706;23.160;2022-11-15T02:05:41;51.67;;;29.90;;
11048;SDS011;5577;42.706;23.160;2022-11-15T02:08:26;54.63;;;30.23;;
11048;SDS011;5577;42.706;23.160;2022-11-15T02:11:10;55.87;;;29.73;;
11048;SDS011;5577;42.706;23.160;2022-11-15T02:13:55;51.70;;;29.73;;
11048;SDS011;5577;42.706;23.160;2022-11-15T02:16:43;56.50;;;31.27;;
11048;SDS011;5577;42.706;23.160;2022-11-15T02:19:40;52.67;;;30.30;;
11048;SDS011;5577;42.706;23.160;2022-11-15T02:23:04;50.80;;;29.97;;
11048;SDS011;5577;42.706;23.160;2022-11-15T02:41:04;50.80;;;29.40;;
11048;SDS011;5577;42.706;23.160;2022-11-15T02:44:03;56.13;;;29.90;;
11048;SDS011;5577;42.706;23.160;2022-11-15T02:46:51;54.50;;;29.77;;
11048;SDS011;5577;42.706;23.160;2022-11-15T02:49:58;51.87;;;30.37;;
11048;SDS011;5577;42.706;23.160;2022-11-15T02:52:45;63.90;;;30.67;;
11048;SDS011;5577;42.706;23.160;2022-11-15T02:55:35;53.93;;;30.33;;
11048;SDS011;5577;42.706;23.160;2022-11-15T03:07:13;53.27;;;28.33;;
11048;SDS011;5577;42.706;23.160;2022-11-15T03:10:06;56.07;;;29.10;;
11048;SDS011;5577;42.706;23.160;2022-11-15T03:13:14;46.50;;;27.07;;
11048;SDS011;5577;42.706;23.160;2022-11-15T03:16:15;56.23;;;30.70;;
11048;SDS011;5577;42.706;23.160;2022-11-15T03:22:05;49.27;;;28.03;;
11048;SDS011;5577;42.706;23.160;2022-11-15T03:24:54;52.37;;;29.60;;
11048;SDS011;5577;42.706;23.160;2022-11-15T03:27:41;50.87;;;28.93;;
11048;SDS011;5577;42.706;23.160;2022-11-15T03:30:32;50.77;;;29.50;;
11048;SDS011;5577;42.706;23.160;2022-11-15T03:33:19;49.00;;;28.37;;
11048;SDS011;5577;42.706;23.160;2022-11-15T03:36:05;48.40;;;28.53;;
11048;SDS011;5577;42.706;23.160;2022-11-15T03:38:51;51.10;;;29.27;;
11048;SDS011;5577;42.706;23.160;2022-11-15T03:41:43;56.23;;;28.73;;
11048;SDS011;5577;42.706;23.160;2022-11-15T03:44:51;58.50;;;30.47;;
11048;SDS011;5577;42.706;23.160;2022-11-15T03:47:43;53.23;;;31.00;;
11048;SDS011;5577;42.706;23.160;2022-11-15T03:50:33;49.90;;;28.60;;
11048;SDS011;5577;42.706;23.160;2022-11-15T03:53:18;48.93;;;27.90;;
11048;SDS011;5577;42.706;23.160;2022-11-15T03:56:02;52.47;;;29.03;;
11048;SDS011;5577;42.706;23.160;2022-11-15T03:58:46;52.17;;;29.30;;
11048;SDS011;5577;42.706;23.160;2022-11-15T04:01:30;48.97;;;28.53;;
11048;SDS011;5577;42.706;23.160;2022-11-15T04:04:14;53.67;;;29.77;;
11048;SDS011;5577;42.706;23.160;2022-11-15T04:06:57;49.43;;;28.07;;
11048;SDS011;5577;42.706;23.160;2022-11-15T04:09:41;49.83;;;29.43;;
11048;SDS011;5577;42.706;23.160;2022-11-15T04:12:45;49.70;;;27.63;;
11048;SDS011;5577;42.706;23.160;2022-11-15T04:15:31;49.23;;;27.87;;
11048;SDS011;5577;42.706;23.160;2022-11-15T04:18:15;48.47;;;28.00;;
11048;SDS011;5577;42.706;23.160;2022-11-15T04:20:59;45.30;;;27.37;;
11048;SDS011;5577;42.706;23.160;2022-11-15T04:24:02;47.07;;;28.63;;
11048;SDS011;5577;42.706;23.160;2022-11-15T04:26:49;50.90;;;29.73;;
11048;SDS011;5577;42.706;23.160;2022-11-15T04:29:33;50.80;;;29.43;;
11048;SDS011;5577;42.706;23.160;2022-11-15T04:32:20;49.33;;;28.53;;
11048;SDS011;5577;42.706;23.160;2022-11-15T04:35:04;51.77;;;28.83;;
11048;SDS011;5577;42.706;23.160;2022-11-15T04:37:48;54.30;;;29.67;;
11048;SDS011;5577;42.706;23.160;2022-11-15T04:40:32;50.03;;;29.63;;
11048;SDS011;5577;42.706;23.160;2022-11-15T04:43:17;52.10;;;29.00;;
11048;SDS011;5577;42.706;23.160;2022-11-15T04:46:01;52.90;;;29.80;;
11048;SDS011;5577;42.706;23.160;2022-11-15T04:48:45;53.87;;;30.30;;
11048;SDS011;5577;42.706;23.160;2022-11-15T04:51:28;58.30;;;30.83;;
11048;SDS011;5577;42.706;23.160;2022-11-15T04:54:12;50.90;;;30.00;;
11048;SDS011;5577;42.706;23.160;2022-11-15T04:56:56;54.50;;;29.00;;
11048;SDS011;5577;42.706;23.160;2022-11-15T04:59:40;53.27;;;28.43;;
11048;SDS011;5577;42.706;23.160;2022-11-15T05:02:24;58.10;;;28.93;;
11048;SDS011;5577;42.706;23.160;2022-11-15T05:05:28;52.50;;;27.13;;
11048;SDS011;5577;42.706;23.160;2022-11-15T05:08:12;59.77;;;30.07;;
11048;SDS011;5577;42.706;23.160;2022-11-15T05:10:56;58.50;;;31.67;;
11048;SDS011;5577;42.706;23.160;2022-11-15T05:13:40;58.10;;;32.30;;
11048;SDS011;5577;42.706;23.160;2022-11-15T05:16:24;59.80;;;33.23;;
11048;SDS011;5577;42.706;23.160;2022-11-15T05:19:08;58.87;;;31.70;;
11048;SDS011;5577;42.706;23.160;2022-11-15T05:21:52;61.80;;;32.73;;
11048;SDS011;5577;42.706;23.160;2022-11-15T05:24:36;75.73;;;32.17;;
11048;SDS011;5577;42.706;23.160;2022-11-15T05:27:19;77.50;;;34.60;;
11048;SDS011;5577;42.706;23.160;2022-11-15T05:30:03;77.13;;;35.23;;
11048;SDS011;5577;42.706;23.160;2022-11-15T05:32:48;91.73;;;36.87;;
11048;SDS011;5577;42.706;23.160;2022-11-15T05:35:38;208.13;;;41.23;;
11048;SDS011;5577;42.706;23.160;2022-11-15T05:38:24;158.90;;;38.27;;
11048;SDS011;5577;42.706;23.160;2022-11-15T05:41:09;178.07;;;37.67;;
11048;SDS011;5577;42.706;23.160;2022-11-15T05:43:54;179.80;;;35.40;;
11048;SDS011;5577;42.706;23.160;2022-11-15T05:46:38;156.90;;;37.13;;
11048;SDS011;5577;42.706;23.160;2022-11-15T05:49:26;208.53;;;36.33;;
11048;SDS011;5577;42.706;23.160;2022-11-15T05:52:14;272.20;;;39.80;;
11048;SDS011;5577;42.706;23.160;2022-11-15T05:55:01;238.33;;;38.90;;
11048;SDS011;5577;42.706;23.160;2022-11-15T05:57:47;238.27;;;39.87;;
11048;SDS011;5577;42.706;23.160;2022-11-15T06:00:32;318.57;;;41.40;;
11048;SDS011;5577;42.706;23.160;2022-11-15T06:03:16;213.27;;;39.33;;
11048;SDS011;5577;42.706;23.160;2022-11-15T06:06:00;240.17;;;39.77;;
11048;SDS011;5577;42.706;23.160;2022-11-15T06:08:44;376.37;;;43.83;;
11048;SDS011;5577;42.706;23.160;2022-11-15T06:11:28;239.67;;;40.47;;
11048;SDS011;5577;42.706;23.160;2022-11-15T06:14:12;240.30;;;42.23;;
11048;SDS011;5577;42.706;23.160;2022-11-15T06:16:56;269.00;;;42.80;;
11048;SDS011;5577;42.706;23.160;2022-11-15T06:19:40;256.40;;;42.87;;
11048;SDS011;5577;42.706;23.160;2022-11-15T06:22:24;235.60;;;43.03;;
11048;SDS011;5577;42.706;23.160;2022-11-15T06:25:08;287.43;;;42.70;;
11048;SDS011;5577;42.706;23.160;2022-11-15T06:27:52;236.33;;;45.13;;
11048;SDS011;5577;42.706;23.160;2022-11-15T06:30:37;266.00;;;45.37;;
11048;SDS011;5577;42.706;23.160;2022-11-15T06:33:21;191.13;;;43.47;;
11048;SDS011;5577;42.706;23.160;2022-11-15T06:36:09;243.10;;;44.37;;
11048;SDS011;5577;42.706;23.160;2022-11-15T06:38:57;188.40;;;40.43;;
11048;SDS011;5577;42.706;23.160;2022-11-15T06:41:41;303.47;;;47.63;;
11048;SDS011;5577;42.706;23.160;2022-11-15T06:44:25;238.37;;;44.90;;
11048;SDS011;5577;42.706;23.160;2022-11-15T06:47:09;249.87;;;45.10;;
11048;SDS011;5577;42.706;23.160;2022-11-15T06:49:53;274.43;;;43.37;;
11048;SDS011;5577;42.706;23.160;2022-11-15T06:52:37;253.00;;;41.67;;
11048;SDS011;5577;42.706;23.160;2022-11-15T06:55:21;231.13;;;38.73;;
11048;SDS011;5577;42.706;23.160;2022-11-15T06:58:05;236.27;;;41.40;;
11048;SDS011;5577;42.706;23.160;2022-11-15T07:00:49;194.67;;;40.20;;
11048;SDS011;5577;42.706;23.160;2022-11-15T07:03:37;177.07;;;38.03;;
11048;SDS011;5577;42.706;23.160;2022-11-15T07:06:23;165.77;;;35.87;;
11048;SDS011;5577;42.706;23.160;2022-11-15T07:09:06;140.07;;;30.70;;
11048;SDS011;5577;42.706;23.160;2022-11-15T07:11:50;159.43;;;30.13;;
11048;SDS011;5577;42.706;23.160;2022-11-15T07:14:34;178.67;;;34.60;;
11048;SDS011;5577;42.706;23.160;2022-11-15T07:17:18;191.80;;;37.17;;
11048;SDS011;5577;42.706;23.160;2022-11-15T07:20:02;126.50;;;30.50;;
11048;SDS011;5577;42.706;23.160;2022-11-15T07:22:47;106.77;;;31.10;;
11048;SDS011;5577;42.706;23.160;2022-11-15T07:25:31;180.67;;;34.33;;
11048;SDS011;5577;42.706;23.160;2022-11-15T07:28:15;122.97;;;32.10;;
11048;SDS011;5577;42.706;23.160;2022-11-15T07:31:02;139.57;;;34.90;;
11048;SDS011;5577;42.706;23.160;2022-11-15T07:33:47;113.93;;;33.63;;
11048;SDS011;5577;42.706;23.160;2022-11-15T07:36:31;151.80;;;34.17;;
11048;SDS011;5577;42.706;23.160;2022-11-15T07:39:15;115.67;;;32.40;;
11048;SDS011;5577;42.706;23.160;2022-11-15T07:41:59;150.43;;;35.67;;
11048;SDS011;5577;42.706;23.160;2022-11-15T07:45:02;198.87;;;35.93;;
11048;SDS011;5577;42.706;23.160;2022-11-15T07:47:47;158.50;;;38.00;;
11048;SDS011;5577;42.706;23.160;2022-11-15T07:50:32;98.23;;;34.23;;
11048;SDS011;5577;42.706;23.160;2022-11-15T07:53:16;158.80;;;36.77;;
11048;SDS011;5577;42.706;23.160;2022-11-15T07:55:59;133.23;;;34.40;;
11048;SDS011;5577;42.706;23.160;2022-11-15T07:58:45;95.47;;;33.33;;
11048;SDS011;5577;42.706;23.160;2022-11-15T08:01:29;122.30;;;35.83;;
11048;SDS011;5577;42.706;23.160;2022-11-15T08:04:13;103.40;;;32.40;;
11048;SDS011;5577;42.706;23.160;2022-11-15T08:06:57;105.83;;;34.67;;
11048;SDS011;5577;42.706;23.160;2022-11-15T08:09:42;288.37;;;38.83;;
11048;SDS011;5577;42.706;23.160;2022-11-15T08:12:27;162.90;;;34.63;;
11048;SDS011;5577;42.706;23.160;2022-11-15T08:15:12;90.30;;;31.97;;
11048;SDS011;5577;42.706;23.160;2022-11-15T08:18:01;113.33;;;30.53;;
11048;SDS011;5577;42.706;23.160;2022-11-15T08:20:47;75.07;;;28.90;;
11048;SDS011;5577;42.706;23.160;2022-11-15T08:23:30;87.40;;;29.07;;
11048;SDS011;5577;42.706;23.160;2022-11-15T08:26:15;84.17;;;31.13;;
11048;SDS011;5577;42.706;23.160;2022-11-15T08:29:00;77.93;;;30.27;;
11048;SDS011;5577;42.706;23.160;2022-11-15T08:31:44;84.57;;;30.93;;
11048;SDS011;5577;42.706;23.160;2022-11-15T08:34:28;77.40;;;30.50;;
11048;SDS011;5577;42.706;23.160;2022-11-15T08:37:12;98.80;;;29.70;;
11048;SDS011;5577;42.706;23.160;2022-11-15T08:39:55;83.23;;;31.50;;
11048;SDS011;5577;42.706;23.160;2022-11-15T08:42:40;67.33;;;30.87;;
11048;SDS011;5577;42.706;23.160;2022-11-15T08:45:23;75.23;;;31.10;;
11048;SDS011;5577;42.706;23.160;2022-11-15T08:48:07;105.77;;;34.50;;
11048;SDS011;5577;42.706;23.160;2022-11-15T08:50:55;116.00;;;34.23;;
11048;SDS011;5577;42.706;23.160;2022-11-15T08:53:40;89.77;;;34.23;;
11048;SDS011;5577;42.706;23.160;2022-11-15T08:56:24;66.07;;;32.07;;
11048;SDS011;5577;42.706;23.160;2022-11-15T08:59:08;74.20;;;33.23;;
11048;SDS011;5577;42.706;23.160;2022-11-15T09:01:52;92.63;;;33.60;;
11048;SDS011;5577;42.706;23.160;2022-11-15T09:04:36;69.30;;;31.43;;
11048;SDS011;5577;42.706;23.160;2022-11-15T09:07:20;75.23;;;32.67;;
11048;SDS011;5577;42.706;23.160;2022-11-15T09:10:04;94.57;;;33.67;;
11048;SDS011;5577;42.706;23.160;2022-11-15T09:12:48;67.37;;;32.60;;
11048;SDS011;5577;42.706;23.160;2022-11-15T09:15:32;89.87;;;34.20;;
11048;SDS011;5577;42.706;23.160;2022-11-15T09:18:16;88.23;;;32.93;;
11048;SDS011;5577;42.706;23.160;2022-11-15T09:21:00;75.87;;;33.30;;
11048;SDS011;5577;42.706;23.160;2022-11-15T09:23:46;80.70;;;33.47;;
11048;SDS011;5577;42.706;23.160;2022-11-15T09:26:30;95.97;;;34.10;;
11048;SDS011;5577;42.706;23.160;2022-11-15T09:29:14;85.70;;;32.07;;
11048;SDS011;5577;42.706;23.160;2022-11-15T09:31:58;63.17;;;32.40;;
11048;SDS011;5577;42.706;23.160;2022-11-15T09:34:41;67.03;;;32.30;;
11048;SDS011;5577;42.706;23.160;2022-11-15T09:37:25;73.43;;;33.23;;
11048;SDS011;5577;42.706;23.160;2022-11-15T09:40:11;73.87;;;33.73;;
11048;SDS011;5577;42.706;23.160;2022-11-15T09:49:13;70.53;;;34.70;;
11048;SDS011;5577;42.706;23.160;2022-11-15T09:51:59;73.60;;;35.37;;
11048;SDS011;5577;42.706;23.160;2022-11-15T09:54:46;72.40;;;35.30;;
11048;SDS011;5577;42.706;23.160;2022-11-15T09:57:37;74.07;;;37.43;;
11048;SDS011;5577;42.706;23.160;2022-11-15T10:00:38;73.10;;;37.63;;
11048;SDS011;5577;42.706;23.160;2022-11-15T10:03:30;65.77;;;35.20;;
11048;SDS011;5577;42.706;23.160;2022-11-15T10:06:25;73.03;;;36.27;;
11048;SDS011;5577;42.706;23.160;2022-11-15T10:09:19;80.83;;;35.83;;
11048;SDS011;5577;42.706;23.160;2022-11-15T10:12:09;69.53;;;34.53;;
11048;SDS011;5577;42.706;23.160;2022-11-15T10:15:03;66.47;;;35.10;;
11048;SDS011;5577;42.706;23.160;2022-11-15T10:20:49;73.10;;;37.07;;
11048;SDS011;5577;42.706;23.160;2022-11-15T10:23:39;65.77;;;36.90;;
11048;SDS011;5577;42.706;23.160;2022-11-15T10:26:23;66.60;;;37.97;;
11048;SDS011;5577;42.706;23.160;2022-11-15T10:29:08;71.57;;;38.57;;
11048;SDS011;5577;42.706;23.160;2022-11-15T10:31:52;73.67;;;37.93;;
11048;SDS011;5577;42.706;23.160;2022-11-15T10:34:36;69.67;;;37.00;;
11048;SDS011;5577;42.706;23.160;2022-11-15T10:37:26;77.77;;;38.67;;
11048;SDS011;5577;42.706;23.160;2022-11-15T10:40:22;81.40;;;39.33;;
11048;SDS011;5577;42.706;23.160;2022-11-15T10:43:17;84.60;;;39.93;;
11048;SDS011;5577;42.706;23.160;2022-11-15T10:46:16;77.33;;;39.27;;
11048;SDS011;5577;42.706;23.160;2022-11-15T10:52:14;76.33;;;40.53;;
11048;SDS011;5577;42.706;23.160;2022-11-15T10:57:51;78.57;;;40.90;;
11048;SDS011;5577;42.706;23.160;2022-11-15T11:00:42;86.00;;;44.30;;
11048;SDS011;5577;42.706;23.160;2022-11-15T11:03:30;86.67;;;44.20;;
11048;SDS011;5577;42.706;23.160;2022-11-15T11:06:18;87.53;;;46.00;;
11048;SDS011;5577;42.706;23.160;2022-11-15T11:09:03;95.77;;;47.87;;
11048;SDS011;5577;42.706;23.160;2022-11-15T11:11:50;102.93;;;49.93;;
11048;SDS011;5577;42.706;23.160;2022-11-15T11:14:36;114.27;;;55.23;;
11048;SDS011;5577;42.706;23.160;2022-11-15T11:38:49;111.10;;;53.67;;
11048;SDS011;5577;42.706;23.160;2022-11-15T11:41:46;119.13;;;57.03;;
11048;SDS011;5577;42.706;23.160;2022-11-15T11:47:38;120.60;;;57.60;;
11048;SDS011;5577;42.706;23.160;2022-11-15T11:50:25;123.07;;;60.23;;
11048;SDS011;5577;42.706;23.160;2022-11-15T11:53:26;128.33;;;59.80;;
11048;SDS011;5577;42.706;23.160;2022-11-15T11:56:21;125.00;;;59.77;;
11048;SDS011;5577;42.706;23.160;2022-11-15T12:02:43;136.60;;;66.43;;
11048;SDS011;5577;42.706;23.160;2022-11-15T12:05:54;136.27;;;65.17;;
11048;SDS011;5577;42.706;23.160;2022-11-15T12:12:07;140.27;;;69.40;;
11048;SDS011;5577;42.706;23.160;2022-11-15T12:17:54;136.60;;;69.23;;
11048;SDS011;5577;42.706;23.160;2022-11-15T12:20:41;151.33;;;72.63;;
11048;SDS011;5577;42.706;23.160;2022-11-15T12:23:38;134.03;;;70.20;;
11048;SDS011;5577;42.706;23.160;2022-11-15T12:26:34;145.60;;;72.83;;
11048;SDS011;5577;42.706;23.160;2022-11-15T12:29:25;136.83;;;70.93;;
11048;SDS011;5577;42.706;23.160;2022-11-15T12:32:29;137.03;;;73.23;;
11048;SDS011;5577;42.706;23.160;2022-11-15T12:38:49;134.33;;;69.93;;
11048;SDS011;5577;42.706;23.160;2022-11-15T12:41:41;129.50;;;69.17;;
11048;SDS011;5577;42.706;23.160;2022-11-15T12:47:22;129.40;;;68.27;;
11048;SDS011;5577;42.706;23.160;2022-11-15T12:50:11;137.67;;;66.97;;
11048;SDS011;5577;42.706;23.160;2022-11-15T12:59:00;122.40;;;65.70;;
11048;SDS011;5577;42.706;23.160;2022-11-15T13:04:34;125.63;;;65.57;;
11048;SDS011;5577;42.706;23.160;2022-11-15T13:13:16;115.03;;;61.83;;
11048;SDS011;5577;42.706;23.160;2022-11-15T13:16:27;119.77;;;60.20;;
11048;SDS011;5577;42.706;23.160;2022-11-15T13:19:11;108.33;;;58.43;;
11048;SDS011;5577;42.706;23.160;2022-11-15T13:21:55;112.17;;;57.67;;
11048;SDS011;5577;42.706;23.160;2022-11-15T13:24:58;113.50;;;59.07;;
11048;SDS011;5577;42.706;23.160;2022-11-15T13:27:48;101.50;;;55.77;;
11048;SDS011;5577;42.706;23.160;2022-11-15T13:30:34;106.23;;;58.90;;
11048;SDS011;5577;42.706;23.160;2022-11-15T13:33:24;102.27;;;55.83;;
11048;SDS011;5577;42.706;23.160;2022-11-15T13:36:25;105.20;;;55.67;;
11048;SDS011;5577;42.706;23.160;2022-11-15T13:42:15;101.47;;;54.93;;
11048;SDS011;5577;42.706;23.160;2022-11-15T13:45:02;112.70;;;55.00;;
11048;SDS011;5577;42.706;23.160;2022-11-15T13:47:53;102.03;;;53.90;;
11048;SDS011;5577;42.706;23.160;2022-11-15T13:50:39;101.67;;;53.93;;
11048;SDS011;5577;42.706;23.160;2022-11-15T13:53:23;91.50;;;52.97;;
11048;SDS011;5577;42.706;23.160;2022-11-15T13:56:08;114.43;;;54.73;;
11048;SDS011;5577;42.706;23.160;2022-11-15T13:58:53;100.40;;;55.70;;
11048;SDS011;5577;42.706;23.160;2022-11-15T14:01:39;94.40;;;52.13;;
11048;SDS011;5577;42.706;23.160;2022-11-15T14:04:26;136.93;;;57.30;;
11048;SDS011;5577;42.706;23.160;2022-11-15T14:07:17;93.50;;;52.87;;
11048;SDS011;5577;42.706;23.160;2022-11-15T14:13:27;110.53;;;55.00;;
11048;SDS011;5577;42.706;23.160;2022-11-15T14:16:17;105.77;;;53.27;;
11048;SDS011;5577;42.706;23.160;2022-11-15T14:19:04;102.23;;;55.07;;
11048;SDS011;5577;42.706;23.160;2022-11-15T14:22:09;93.17;;;53.00;;
11048;SDS011;5577;42.706;23.160;2022-11-15T14:25:12;98.53;;;53.90;;
11048;SDS011;5577;42.706;23.160;2022-11-15T14:28:29;96.97;;;53.03;;
11048;SDS011;5577;42.706;23.160;2022-11-15T14:31:16;99.10;;;53.83;;
11048;SDS011;5577;42.706;23.160;2022-11-15T14:34:00;95.43;;;54.63;;
11048;SDS011;5577;42.706;23.160;2022-11-15T14:36:44;95.87;;;53.27;;
11048;SDS011;5577;42.706;23.160;2022-11-15T14:39:28;91.53;;;52.77;;
11048;SDS011;5577;42.706;23.160;2022-11-15T14:42:12;89.87;;;50.20;;
11048;SDS011;5577;42.706;23.160;2022-11-15T14:44:56;86.43;;;49.03;;
11048;SDS011;5577;42.706;23.160;2022-11-15T14:47:41;85.13;;;48.23;;
11048;SDS011;5577;42.706;23.160;2022-11-15T14:50:26;88.73;;;49.03;;
11048;SDS011;5577;42.706;23.160;2022-11-15T14:53:15;94.63;;;49.80;;
11048;SDS011;5577;42.706;23.160;2022-11-15T14:56:00;86.07;;;47.83;;
11048;SDS011;5577;42.706;23.160;2022-11-15T14:58:44;95.73;;;51.07;;
11048;SDS011;5577;42.706;23.160;2022-11-15T15:01:28;125.53;;;66.10;;
11048;SDS011;5577;42.706;23.160;2022-11-15T15:04:12;101.60;;;57.00;;
11048;SDS011;5577;42.706;23.160;2022-11-15T15:06:56;102.53;;;54.20;;
11048;SDS011;5577;42.706;23.160;2022-11-15T15:09:40;96.13;;;53.30;;
11048;SDS011;5577;42.706;23.160;2022-11-15T15:12:24;92.40;;;51.87;;
11048;SDS011;5577;42.706;23.160;2022-11-15T15:15:13;92.73;;;51.03;;
11048;SDS011;5577;42.706;23.160;2022-11-15T15:18:02;90.37;;;52.07;;
11048;SDS011;5577;42.706;23.160;2022-11-15T15:20:55;97.13;;;51.87;;
11048;SDS011;5577;42.706;23.160;2022-11-15T15:23:43;95.03;;;51.03;;
11048;SDS011;5577;42.706;23.160;2022-11-15T15:26:27;87.57;;;50.37;;
11048;SDS011;5577;42.706;23.160;2022-11-15T15:29:11;91.97;;;52.73;;
11048;SDS011;5577;42.706;23.160;2022-11-15T15:31:54;89.60;;;50.33;;
11048;SDS011;5577;42.706;23.160;2022-11-15T15:34:39;89.93;;;51.40;;
11048;SDS011;5577;42.706;23.160;2022-11-15T15:37:24;95.77;;;53.47;;
11048;SDS011;5577;42.706;23.160;2022-11-15T15:40:10;98.73;;;55.60;;
11048;SDS011;5577;42.706;23.160;2022-11-15T15:43:06;89.47;;;51.23;;
11048;SDS011;5577;42.706;23.160;2022-11-15T15:45:52;96.13;;;52.30;;
11048;SDS011;5577;42.706;23.160;2022-11-15T15:48:36;87.37;;;50.93;;
11048;SDS011;5577;42.706;23.160;2022-11-15T15:51:22;88.60;;;51.43;;
11048;SDS011;5577;42.706;23.160;2022-11-15T15:54:06;87.87;;;53.00;;
11048;SDS011;5577;42.706;23.160;2022-11-15T15:56:50;124.57;;;67.27;;
11048;SDS011;5577;42.706;23.160;2022-11-15T15:59:34;159.93;;;77.43;;
11048;SDS011;5577;42.706;23.160;2022-11-15T16:02:17;110.87;;;59.60;;
11048;SDS011;5577;42.706;23.160;2022-11-15T16:05:01;121.73;;;63.13;;
11048;SDS011;5577;42.706;23.160;2022-11-15T16:07:45;116.47;;;60.57;;
11048;SDS011;5577;42.706;23.160;2022-11-15T16:10:31;115.20;;;60.00;;
11048;SDS011;5577;42.706;23.160;2022-11-15T16:13:17;104.40;;;56.80;;
11048;SDS011;5577;42.706;23.160;2022-11-15T16:16:01;101.47;;;57.37;;
11048;SDS011;5577;42.706;23.160;2022-11-15T16:18:45;101.57;;;55.33;;
11048;SDS011;5577;42.706;23.160;2022-11-15T16:21:29;109.60;;;59.03;;
11048;SDS011;5577;42.706;23.160;2022-11-15T16:24:13;110.77;;;59.67;;
11048;SDS011;5577;42.706;23.160;2022-11-15T16:26:57;111.53;;;57.87;;
11048;SDS011;5577;42.706;23.160;2022-11-15T16:29:41;108.63;;;60.33;;
11048;SDS011;5577;42.706;23.160;2022-11-15T16:32:25;118.40;;;63.30;;
11048;SDS011;5577;42.706;23.160;2022-11-15T16:35:14;111.30;;;61.37;;
11048;SDS011;5577;42.706;23.160;2022-11-15T16:37:59;124.17;;;63.40;;
11048;SDS011;5577;42.706;23.160;2022-11-15T16:40:43;114.37;;;64.17;;
11048;SDS011;5577;42.706;23.160;2022-11-15T16:43:27;126.07;;;69.03;;
11048;SDS011;5577;42.706;23.160;2022-11-15T16:49:02;113.73;;;61.63;;
11048;SDS011;5577;42.706;23.160;2022-11-15T16:51:48;112.20;;;62.03;;
11048;SDS011;5577;42.706;23.160;2022-11-15T16:54:33;112.47;;;62.40;;
11048;SDS011;5577;42.706;23.160;2022-11-15T16:57:17;121.37;;;65.30;;
11048;SDS011;5577;42.706;23.160;2022-11-15T17:00:02;132.00;;;68.63;;
11048;SDS011;5577;42.706;23.160;2022-11-15T17:02:47;138.87;;;72.67;;
11048;SDS011;5577;42.706;23.160;2022-11-15T17:05:32;144.83;;;78.23;;
11048;SDS011;5577;42.706;23.160;2022-11-15T17:08:16;124.23;;;70.77;;
11048;SDS011;5577;42.706;23.160;2022-11-15T17:11:03;139.97;;;72.30;;
11048;SDS011;5577;42.706;23.160;2022-11-15T17:13:49;134.07;;;72.20;;
11048;SDS011;5577;42.706;23.160;2022-11-15T17:16:32;132.97;;;72.40;;
11048;SDS011;5577;42.706;23.160;2022-11-15T17:19:19;131.43;;;72.00;;
11048;SDS011;5577;42.706;23.160;2022-11-15T17:22:03;128.50;;;71.10;;
11048;SDS011;5577;42.706;23.160;2022-11-15T17:24:47;223.17;;;136.03;;
11048;SDS011;5577;42.706;23.160;2022-11-15T17:27:32;174.47;;;99.80;;
11048;SDS011;5577;42.706;23.160;2022-11-15T17:30:16;170.47;;;102.30;;
11048;SDS011;5577;42.706;23.160;2022-11-15T17:33:02;155.00;;;91.00;;
11048;SDS011;5577;42.706;23.160;2022-11-15T17:35:58;150.17;;;79.70;;
11048;SDS011;5577;42.706;23.160;2022-11-15T17:38:43;158.83;;;85.20;;
11048;SDS011;5577;42.706;23.160;2022-11-15T17:41:32;160.70;;;86.70;;
11048;SDS011;5577;42.706;23.160;2022-11-15T17:44:16;150.13;;;86.10;;
11048;SDS011;5577;42.706;23.160;2022-11-15T17:47:00;154.93;;;81.10;;
11048;SDS011;5577;42.706;23.160;2022-11-15T17:49:44;155.43;;;81.10;;
11048;SDS011;5577;42.706;23.160;2022-11-15T17:52:28;145.73;;;79.63;;
11048;SDS011;5577;42.706;23.160;2022-11-15T17:55:12;148.57;;;81.80;;
11048;SDS011;5577;42.706;23.160;2022-11-15T17:57:55;154.30;;;84.20;;
11048;SDS011;5577;42.706;23.160;2022-11-15T18:00:39;141.83;;;78.53;;